createdAt,value
2022-08-07T00:00:39.769Z,26.16
2022-08-07T00:03:08.618Z,26.26
2022-08-07T00:05:39.959Z,26.27
2022-08-07T00:08:09.663Z,26.25
2022-08-07T00:10:48.038Z,26.24
2022-08-07T00:13:26.665Z,26.22
2022-08-07T00:15:57.289Z,26.26
2022-08-07T00:18:27.711Z,26.25
2022-08-07T00:21:01.926Z,26.19
2022-08-07T00:23:31.591Z,26.26
2022-08-07T00:26:12.835Z,26.23
2022-08-07T00:28:56.445Z,26.15
2022-08-07T00:31:37.965Z,26.11
2022-08-07T00:34:09.421Z,26.13
2022-08-07T00:36:43.314Z,26.15
2022-08-07T00:39:16.491Z,26.33
2022-08-07T00:41:53.425Z,26.37
2022-08-07T00:44:31.336Z,26.27
2022-08-07T00:47:16.120Z,26.19
2022-08-07T00:50:21.325Z,26.14
2022-08-07T00:52:48.473Z,26.10
2022-08-07T00:55:17.498Z,26.07
2022-08-07T00:58:12.195Z,26.08
2022-08-07T01:00:39.539Z,26.05
2022-08-07T01:03:25.475Z,26.12
2022-08-07T01:06:08.803Z,26.01
2022-08-07T01:08:36.076Z,26.02
2022-08-07T01:12:23.798Z,26.01
2022-08-07T01:14:02.150Z,25.93
2022-08-07T01:16:30.373Z,25.92
2022-08-07T01:18:58.345Z,25.95
2022-08-07T01:21:26.277Z,25.96
2022-08-07T01:23:57.436Z,26.01
2022-08-07T01:26:28.142Z,25.73
2022-08-07T01:28:58.837Z,25.56
2022-08-07T01:31:41.639Z,25.55
2022-08-07T01:34:13.629Z,25.52
2022-08-07T01:36:44.087Z,25.56
2022-08-07T01:39:11.875Z,25.67
2022-08-07T01:42:07.371Z,25.68
2022-08-07T01:44:34.361Z,25.52
2022-08-07T01:47:14.651Z,25.62
2022-08-07T01:49:56.663Z,25.59
2022-08-07T01:52:26.615Z,25.56
2022-08-07T01:54:54.978Z,25.70
2022-08-07T01:57:28.577Z,25.73
2022-08-07T02:00:04.317Z,25.77
2022-08-07T02:03:11.699Z,25.65
2022-08-07T02:05:59.390Z,25.64
2022-08-07T02:08:33.658Z,25.56
2022-08-07T02:11:10.374Z,25.50
2022-08-07T02:13:56.533Z,25.57
2022-08-07T02:16:33.713Z,25.46
2022-08-07T02:20:07.817Z,25.42
2022-08-07T02:21:58.574Z,25.49
2022-08-07T02:24:29.401Z,25.54
2022-08-07T02:27:01.225Z,25.50
2022-08-07T02:29:29.451Z,25.35
2022-08-07T02:31:59.840Z,25.27
2022-08-07T02:34:31.094Z,25.76
2022-08-07T02:37:02.114Z,25.78
2022-08-07T02:40:11.880Z,25.63
2022-08-07T02:42:33.398Z,25.53
2022-08-07T02:45:07.608Z,25.24
2022-08-07T02:47:50.373Z,25.20
2022-08-07T02:50:21.075Z,25.30
2022-08-07T02:53:10.909Z,25.06
2022-08-07T02:56:03.251Z,24.94
2022-08-07T02:58:33.224Z,25.03
2022-08-07T03:01:10.380Z,25.10
2022-08-07T03:03:49.715Z,24.88
2022-08-07T03:06:25.833Z,24.92
2022-08-07T03:09:04.805Z,24.87
2022-08-07T03:11:38.362Z,24.91
2022-08-07T03:14:06.940Z,24.85
2022-08-07T03:16:34.828Z,24.99
2022-08-07T03:19:02.436Z,25.06
2022-08-07T03:21:33.051Z,25.26
2022-08-07T03:24:18.462Z,25.35
2022-08-07T03:26:58.056Z,25.12
2022-08-07T03:29:29.481Z,24.90
2022-08-07T03:32:00.741Z,25.16
2022-08-07T03:34:28.780Z,25.17
2022-08-07T03:36:59.809Z,25.45
2022-08-07T03:40:13.325Z,25.44
2022-08-07T03:42:35.704Z,25.33
2022-08-07T03:45:05.729Z,25.25
2022-08-07T03:47:57.300Z,25.33
2022-08-07T03:50:29.711Z,25.19
2022-08-07T03:52:58.836Z,25.24
2022-08-07T03:55:57.617Z,25.21
2022-08-07T03:59:06.751Z,25.34
2022-08-07T04:01:11.194Z,25.47
2022-08-07T04:03:53.735Z,25.67
2022-08-07T04:06:36.991Z,25.52
2022-08-07T04:09:15.655Z,25.53
2022-08-07T04:12:27.639Z,25.42
2022-08-07T04:14:38.625Z,25.29
2022-08-07T04:17:20.098Z,25.38
2022-08-07T04:19:51.885Z,25.39
2022-08-07T04:22:22.956Z,25.47
2022-08-07T04:24:50.560Z,25.46
2022-08-07T04:27:25.212Z,25.66
2022-08-07T04:30:01.365Z,25.94
2022-08-07T04:32:34.752Z,25.80
2022-08-07T04:35:07.051Z,25.75
2022-08-07T04:38:00.931Z,25.76
2022-08-07T04:40:29.819Z,25.78
2022-08-07T04:43:02.206Z,25.79
2022-08-07T04:46:00.740Z,25.55
2022-08-07T04:48:44.599Z,25.61
2022-08-07T04:51:27.221Z,25.54
2022-08-07T04:54:06.532Z,25.46
2022-08-07T04:58:11.698Z,25.48
2022-08-07T05:00:10.703Z,25.41
2022-08-07T05:02:38.019Z,25.39
2022-08-07T05:05:53.245Z,25.40
2022-08-07T05:08:12.588Z,25.49
2022-08-07T05:10:50.882Z,25.61
2022-08-07T05:14:52.091Z,25.57
2022-08-07T05:16:24.138Z,25.67
2022-08-07T05:18:57.893Z,25.66
2022-08-07T05:21:59.851Z,25.67
2022-08-07T05:24:24.606Z,25.76
2022-08-07T05:26:59.752Z,25.80
2022-08-07T05:29:38.822Z,25.85
2022-08-07T05:32:19.029Z,25.89
2022-08-07T05:34:49.735Z,25.91
2022-08-07T05:37:25.129Z,25.91
2022-08-07T05:40:13.455Z,26.10
2022-08-07T05:42:42.769Z,26.15
2022-08-07T05:45:46.751Z,26.17
2022-08-07T05:48:19.477Z,26.11
2022-08-07T05:51:01.386Z,25.97
2022-08-07T05:54:13.097Z,25.82
2022-08-07T05:56:19.015Z,26.03
2022-08-07T05:58:52.975Z,26.26
2022-08-07T06:01:35.678Z,26.27
2022-08-07T06:04:12.351Z,26.20
2022-08-07T06:06:56.471Z,26.37
2022-08-07T06:10:04.333Z,26.48
2022-08-07T06:12:37.530Z,26.89
2022-08-07T06:15:10.283Z,27.09
2022-08-07T06:17:53.751Z,27.08
2022-08-07T06:20:49.863Z,27.33
2022-08-07T06:24:38.657Z,27.73
2022-08-07T06:26:27.436Z,27.84
2022-08-07T06:29:07.587Z,27.73
2022-08-07T06:31:49.692Z,27.94
2022-08-07T06:34:23.503Z,28.13
2022-08-07T06:36:54.994Z,28.10
2022-08-07T06:40:16.831Z,28.13
2022-08-07T06:42:33.075Z,28.09
2022-08-07T06:45:07.367Z,27.91
2022-08-07T06:47:57.729Z,27.97
2022-08-07T06:50:31.804Z,28.21
2022-08-07T06:53:00.446Z,28.23
2022-08-07T06:55:53.989Z,28.33
2022-08-07T06:58:24.662Z,28.44
2022-08-07T07:01:03.860Z,28.81
2022-08-07T07:03:47.547Z,28.97
2022-08-07T07:06:26.592Z,29.14
2022-08-07T07:09:05.754Z,29.37
2022-08-07T07:14:45.454Z,29.37
2022-08-07T07:17:24.849Z,29.56
2022-08-07T07:20:18.764Z,29.69
2022-08-07T07:24:09.133Z,29.64
2022-08-07T07:29:57.050Z,30.31
2022-08-07T07:31:55.138Z,30.15
2022-08-07T07:37:45.418Z,30.39
2022-08-07T07:40:18.810Z,30.39
2022-08-07T07:42:54.105Z,30.59
2022-08-07T07:46:36.752Z,30.64
2022-08-07T07:48:41.521Z,30.82
2022-08-07T07:51:12.948Z,30.96
2022-08-07T07:56:32.456Z,31.35
2022-08-07T07:59:13.486Z,31.42
2022-08-07T08:02:01.929Z,31.10
2022-08-07T08:04:38.570Z,31.33
2022-08-07T08:07:09.030Z,31.60
2022-08-07T08:09:52.369Z,31.59
2022-08-07T08:12:51.097Z,31.95
2022-08-07T08:15:15.143Z,32.08
2022-08-07T08:17:57.270Z,32.18
2022-08-07T08:20:32.484Z,32.29
2022-08-07T08:23:00.811Z,32.44
2022-08-07T08:25:42.805Z,32.60
2022-08-07T08:28:37.813Z,32.13
2022-08-07T08:31:16.174Z,32.46
2022-08-07T08:33:49.777Z,32.57
2022-08-07T08:36:30.570Z,32.29
2022-08-07T08:39:02.771Z,32.45
2022-08-07T08:41:57.556Z,32.10
2022-08-07T08:44:44.675Z,31.90
2022-08-07T08:47:22.204Z,32.64
2022-08-07T08:50:05.669Z,32.29
2022-08-07T08:52:54.147Z,32.62
2022-08-07T08:55:53.236Z,32.74
2022-08-07T08:58:28.872Z,32.76
2022-08-07T09:01:15.329Z,32.91
2022-08-07T09:04:00.892Z,32.79
2022-08-07T09:06:37.448Z,32.18
2022-08-07T09:09:30.242Z,32.24
2022-08-07T09:12:31.431Z,32.27
2022-08-07T09:16:21.958Z,31.91
2022-08-07T09:18:36.636Z,32.00
2022-08-07T09:22:10.339Z,32.32
2022-08-07T09:24:59.329Z,32.44
2022-08-07T09:27:54.665Z,32.76
2022-08-07T09:30:36.332Z,32.86
2022-08-07T09:33:52.483Z,33.03
2022-08-07T09:36:33.574Z,33.03
2022-08-07T09:39:53.070Z,33.06
2022-08-07T09:42:33.617Z,32.50
2022-08-07T09:47:24.494Z,31.84
2022-08-07T09:48:29.617Z,31.88
2022-08-07T09:52:16.462Z,32.15
2022-08-07T09:54:08.286Z,31.84
2022-08-07T09:57:12.858Z,31.61
2022-08-07T10:00:01.934Z,31.41
2022-08-07T10:02:53.655Z,31.34
2022-08-07T10:05:59.714Z,31.15
2022-08-07T10:08:53.462Z,31.07
2022-08-07T10:12:01.331Z,30.96
2022-08-07T10:14:33.069Z,31.26
2022-08-07T10:17:18.305Z,31.80
2022-08-07T10:20:00.874Z,32.22
2022-08-07T10:22:43.127Z,32.64
2022-08-07T10:25:20.995Z,32.60
2022-08-07T10:28:12.678Z,32.63
2022-08-07T10:30:53.662Z,32.76
2022-08-07T10:34:14.507Z,32.90
2022-08-07T10:36:38.710Z,32.78
2022-08-07T10:39:42.088Z,32.72
2022-08-07T10:42:31.353Z,32.83
2022-08-07T10:45:03.674Z,32.96
2022-08-07T10:47:51.459Z,33.00
2022-08-07T10:50:26.112Z,33.20
2022-08-07T10:53:08.863Z,33.03
2022-08-07T10:55:50.778Z,33.29
2022-08-07T10:58:32.086Z,32.82
2022-08-07T11:01:17.608Z,32.44
2022-08-07T11:04:31.939Z,32.23
2022-08-07T11:07:56.117Z,32.66
2022-08-07T11:10:17.097Z,33.21
2022-08-07T11:13:02.044Z,33.15
2022-08-07T11:15:37.074Z,33.31
2022-08-07T11:18:17.771Z,33.33
2022-08-07T11:21:06.855Z,33.46
2022-08-07T11:23:50.540Z,33.59
2022-08-07T11:26:28.766Z,33.20
2022-08-07T11:29:13.102Z,32.83
2022-08-07T11:32:06.459Z,32.67
2022-08-07T11:34:45.253Z,32.66
2022-08-07T11:37:18.915Z,32.28
2022-08-07T11:40:03.429Z,32.11
2022-08-07T11:42:40.862Z,32.00
2022-08-07T11:45:53.118Z,32.03
2022-08-07T11:48:37.568Z,32.34
2022-08-07T11:51:41.671Z,32.60
2022-08-07T11:54:54.757Z,32.70
2022-08-07T11:57:59.551Z,33.04
2022-08-07T12:01:02.525Z,32.93
2022-08-07T12:03:46.430Z,32.73
2022-08-07T12:06:40.334Z,32.63
2022-08-07T12:09:24.925Z,32.39
2022-08-07T12:12:10.470Z,32.18
2022-08-07T12:14:55.371Z,32.05
2022-08-07T12:17:38.656Z,31.96
2022-08-07T12:20:19.991Z,31.93
2022-08-07T12:23:14.553Z,31.63
2022-08-07T12:26:03.066Z,31.34
2022-08-07T12:28:52.829Z,31.07
2022-08-07T12:32:02.018Z,30.72
2022-08-07T12:34:25.886Z,30.53
2022-08-07T12:36:56.497Z,30.44
2022-08-07T12:39:44.272Z,30.34
2022-08-07T12:42:27.160Z,30.36
2022-08-07T12:44:58.569Z,30.41
2022-08-07T12:47:46.042Z,30.49
2022-08-07T12:50:34.268Z,30.54
2022-08-07T12:54:02.819Z,30.65
2022-08-07T12:56:28.139Z,30.77
2022-08-07T12:58:56.950Z,30.96
2022-08-07T13:01:38.838Z,31.06
2022-08-07T13:04:34.253Z,31.03
2022-08-07T13:08:12.379Z,30.98
2022-08-07T13:10:51.620Z,31.23
2022-08-07T13:13:48.579Z,31.17
2022-08-07T13:16:36.623Z,31.10
2022-08-07T13:19:18.175Z,31.20
2022-08-07T13:22:00.603Z,31.33
2022-08-07T13:24:54.025Z,31.53
2022-08-07T13:28:11.617Z,31.61
2022-08-07T13:30:41.446Z,31.82
2022-08-07T13:34:32.595Z,31.62
2022-08-07T13:36:28.324Z,31.62
2022-08-07T13:39:01.869Z,31.66
2022-08-07T13:41:41.301Z,31.41
2022-08-07T13:44:13.027Z,31.45
2022-08-07T13:46:49.560Z,31.67
2022-08-07T13:50:35.744Z,31.75
2022-08-07T13:52:30.501Z,31.88
2022-08-07T13:55:26.700Z,31.94
2022-08-07T13:58:06.108Z,32.07
2022-08-07T14:00:50.511Z,32.16
2022-08-07T14:03:29.022Z,32.36
2022-08-07T14:05:57.382Z,32.38
2022-08-07T14:08:28.194Z,32.62
2022-08-07T14:11:14.344Z,32.69
2022-08-07T14:13:54.144Z,32.57
2022-08-07T14:16:27.285Z,32.39
2022-08-07T14:19:06.156Z,32.03
2022-08-07T14:22:04.222Z,31.94
2022-08-07T14:24:48.448Z,31.56
2022-08-07T14:28:10.608Z,31.51
2022-08-07T14:30:12.667Z,31.40
2022-08-07T14:32:43.092Z,31.36
2022-08-07T14:35:43.359Z,31.32
2022-08-07T14:38:26.665Z,31.23
2022-08-07T14:41:04.289Z,31.20
2022-08-07T14:43:57.455Z,31.10
2022-08-07T14:46:35.822Z,31.05
2022-08-07T14:49:17.252Z,31.04
2022-08-07T14:52:03.820Z,31.03
2022-08-07T14:54:42.919Z,30.97
2022-08-07T14:57:11.640Z,30.96
2022-08-07T15:00:05.353Z,30.94
2022-08-07T15:02:39.069Z,30.95
2022-08-07T15:05:20.033Z,30.91
2022-08-07T15:07:54.826Z,30.89
2022-08-07T15:10:29.898Z,30.91
2022-08-07T15:13:11.626Z,30.89
2022-08-07T15:15:42.813Z,30.79
2022-08-07T15:18:28.478Z,30.78
2022-08-07T15:25:15.717Z,30.66
2022-08-07T15:27:05.670Z,30.64
2022-08-07T15:30:10.333Z,30.62
2022-08-07T15:32:51.064Z,30.54
2022-08-07T15:38:30.011Z,30.55
2022-08-07T15:44:03.212Z,30.63
2022-08-07T15:46:38.601Z,30.72
2022-08-07T15:52:13.652Z,30.70
2022-08-07T15:54:42.806Z,30.73
2022-08-07T15:57:39.603Z,30.68
2022-08-07T16:00:31.469Z,30.77
2022-08-07T16:03:01.768Z,30.92
2022-08-07T16:05:36.945Z,30.81
2022-08-07T16:08:32.501Z,30.82
2022-08-07T16:11:27.049Z,30.77
2022-08-07T16:14:11.773Z,30.72
2022-08-07T16:16:57.192Z,30.66
2022-08-07T16:19:42.949Z,30.62
2022-08-07T16:22:37.911Z,30.54
2022-08-07T16:25:23.299Z,30.55
2022-08-07T16:30:06.977Z,30.49
2022-08-07T16:31:02.671Z,30.49
2022-08-07T16:34:01.472Z,30.46
2022-08-07T16:37:02.820Z,30.41
2022-08-07T16:40:05.583Z,30.32
2022-08-07T16:42:36.785Z,30.27
2022-08-07T16:46:21.140Z,30.24
2022-08-07T16:48:37.669Z,30.20
2022-08-07T16:52:01.789Z,30.16
2022-08-07T16:54:32.765Z,30.10
2022-08-07T16:57:15.409Z,30.03
2022-08-07T16:59:52.049Z,29.98
2022-08-07T17:03:04.942Z,30.00
2022-08-07T17:06:26.602Z,29.92
2022-08-07T17:09:04.354Z,29.86
2022-08-07T17:12:01.311Z,29.82
2022-08-07T17:14:41.195Z,29.82
2022-08-07T17:17:45.886Z,29.75
2022-08-07T17:20:20.672Z,29.66
2022-08-07T17:23:00.269Z,29.74
2022-08-07T17:25:51.336Z,29.71
2022-08-07T17:28:24.663Z,29.71
2022-08-07T17:31:18.076Z,29.73
2022-08-07T17:34:17.938Z,29.59
2022-08-07T17:36:59.765Z,29.43
2022-08-07T17:40:05.550Z,29.33
2022-08-07T17:42:36.321Z,29.22
2022-08-07T17:45:40.025Z,29.34
2022-08-07T17:48:30.875Z,29.19
2022-08-07T17:51:21.670Z,29.12
2022-08-07T17:54:13.417Z,29.03
2022-08-07T17:57:19.024Z,28.98
2022-08-07T17:59:58.194Z,28.94
2022-08-07T18:02:56.383Z,28.73
2022-08-07T18:06:02.910Z,28.48
2022-08-07T18:09:01.121Z,28.35
2022-08-07T18:12:17.773Z,28.15
2022-08-07T18:15:08.753Z,27.98
2022-08-07T18:18:46.422Z,28.24
2022-08-07T18:21:07.007Z,28.26
2022-08-07T18:23:43.611Z,28.05
2022-08-07T18:26:40.697Z,27.96
2022-08-07T18:30:07.623Z,27.97
2022-08-07T18:32:28.331Z,28.05
2022-08-07T18:35:19.333Z,28.10
2022-08-07T18:38:57.455Z,28.14
2022-08-07T18:40:56.180Z,28.03
2022-08-07T18:43:49.093Z,28.09
2022-08-07T18:46:27.531Z,28.20
2022-08-07T18:50:32.402Z,28.14
2022-08-07T18:52:25.647Z,28.04
2022-08-07T18:54:56.370Z,27.86
2022-08-07T18:57:44.633Z,27.89
2022-08-07T19:03:59.051Z,27.68
2022-08-07T19:06:48.191Z,27.68
2022-08-07T19:09:55.614Z,27.67
2022-08-07T19:16:05.526Z,27.54
2022-08-07T19:19:02.659Z,27.46
2022-08-07T19:22:04.320Z,27.47
2022-08-07T19:24:54.417Z,27.42
2022-08-07T19:28:57.147Z,27.50
2022-08-07T19:31:03.180Z,27.49
2022-08-07T19:33:39.203Z,27.50
2022-08-07T19:36:36.180Z,27.50
2022-08-07T19:39:09.154Z,27.50
2022-08-07T19:44:48.753Z,27.36
2022-08-07T19:47:36.492Z,27.33
2022-08-07T19:50:43.847Z,27.27
2022-08-07T19:54:34.120Z,27.17
2022-08-07T19:58:02.406Z,27.01
2022-08-07T19:59:42.771Z,26.98
2022-08-07T20:02:30.888Z,26.92
2022-08-07T20:05:19.865Z,26.90
2022-08-07T20:10:55.640Z,26.96
2022-08-07T20:13:42.298Z,26.81
2022-08-07T20:16:35.910Z,26.81
2022-08-07T20:19:15.256Z,26.78
2022-08-07T20:22:10.382Z,26.71
2022-08-07T20:25:01.148Z,26.57
2022-08-07T20:27:46.567Z,26.50
2022-08-07T20:30:36.068Z,26.38
2022-08-07T20:33:36.625Z,26.42
2022-08-07T20:36:13.344Z,26.32
2022-08-07T20:39:00.823Z,26.23
2022-08-07T20:44:49.586Z,26.23
2022-08-07T20:47:56.330Z,26.26
2022-08-07T20:50:40.883Z,26.15
2022-08-07T20:53:25.916Z,26.14
2022-08-07T20:56:26.989Z,25.92
2022-08-07T21:00:05.419Z,26.01
2022-08-07T21:02:30.864Z,26.00
2022-08-07T21:05:16.228Z,25.97
2022-08-07T21:07:49.656Z,26.00
2022-08-07T21:10:25.244Z,26.03
2022-08-07T21:13:11.050Z,25.99
2022-08-07T21:16:00.673Z,26.01
2022-08-07T21:18:41.297Z,25.95
2022-08-07T21:21:49.149Z,25.87
2022-08-07T21:24:48.021Z,25.91
2022-08-07T21:27:39.873Z,25.90
2022-08-07T21:30:36.915Z,25.85
2022-08-07T21:33:41.410Z,25.95
2022-08-07T21:36:31.819Z,25.83
2022-08-07T21:39:46.260Z,25.74
2022-08-07T21:42:42.204Z,25.65
2022-08-07T21:46:05.331Z,25.54
2022-08-07T21:48:55.782Z,25.52
2022-08-07T21:51:32.362Z,25.46
2022-08-07T21:54:26.399Z,25.31
2022-08-07T21:57:16.087Z,25.30
2022-08-07T22:00:08.956Z,25.21
2022-08-07T22:02:50.990Z,25.11
2022-08-07T22:05:45.841Z,25.09
2022-08-07T22:08:18.883Z,24.94
2022-08-07T22:11:05.867Z,24.98
2022-08-07T22:13:51.964Z,25.02
2022-08-07T22:16:46.806Z,25.03
2022-08-07T22:19:30.088Z,25.10
2022-08-07T22:22:21.152Z,24.99
2022-08-07T22:25:12.777Z,24.94
2022-08-07T22:28:07.651Z,24.91
2022-08-07T22:31:05.104Z,24.88
2022-08-07T22:33:57.038Z,24.82
2022-08-07T22:36:56.163Z,24.90
2022-08-07T22:39:53.057Z,25.04
2022-08-07T22:42:33.301Z,24.94
2022-08-07T22:45:11.104Z,24.92
2022-08-07T22:54:14.976Z,24.87
2022-08-07T22:56:58.651Z,24.87
2022-08-07T22:59:43.061Z,24.89
2022-08-07T23:02:33.851Z,24.89
2022-08-07T23:06:09.037Z,24.78
2022-08-07T23:08:54.296Z,24.72
2022-08-07T23:14:25.045Z,24.68
2022-08-07T23:17:15.884Z,24.86
2022-08-07T23:20:11.751Z,24.93
2022-08-07T23:23:02.415Z,24.92
2022-08-07T23:28:29.448Z,24.86
2022-08-07T23:31:42.562Z,24.93
2022-08-07T23:37:20.449Z,25.09
2022-08-07T23:40:09.365Z,25.16
2022-08-07T23:46:10.948Z,25.21
2022-08-07T23:49:15.481Z,25.24
2022-08-07T23:52:59.617Z,25.28
2022-08-07T23:55:53.601Z,25.32
2022-08-07T23:58:55.516Z,25.37
